Dobrodošli na spletni strani vremenske postaje Senovo. Vse informacije so informativnega značaja, saj vremenska postaja ni del državne mreže meteoroloških postaj.

AKTUALNIH OBVESTIL NI.


Posebna pozornost v zvezi z vremenskimi dogajanji ni potrebna.    Posebna pozornost v zvezi z vremenskimi dogajanji ni potrebna.

Pogled proti Armezu več informacij Pogled proti Armezu


Bohor več informacij Bohor


Lisca več informacij Lisca


Radar strel več informacij blitzortung!


Radar padavin več informacij rain snow radar


Obiščite še:

Template documentation
and downloads

And another site



METAR v bližini

   
LJLJ - Ljubljana
Posodobljeno: 19-11-2018 00:30
rahlo sneženje, oblačno  
rahlo sneženje, oblačno  
   Veter: različen 3.7 km/h
Veter: različen 3.7 km/h
Temperatura: 2°C
Točka rosišča: -1°C
Vlažnost: 81%
Zračni tlak: 1014 hPa
Oblaki: oblačno
Vidljivost: More than 10 km
Podrobnosti o oblakih: nekaj oblakov 365.8 m,
pretežno oblačno 1127.8 m,
oblačno 1432.6 m
LJLJ 182330Z VRB02KT 9999 -SN FEW012 BKN037 OVC047 02/M01 Q1014 NOSIG
LJCE - Cerklje ob Krki
Posodobljeno: 19-11-2018 00:00
  
  
   Veter: Vzhod 5.6 km/h
Veter: Vzhod 5.6 km/h
Vidljivost: More than 10 km
LJCE 182300Z AUTO 10003KT 9999 -PL OVC013/// 02/00 Q1016
LJMB - Maribor
Posodobljeno: 19-11-2018 00:30
rahel dež, Sneg, oblačno  
rahel dež, Sneg, oblačno  
   Veter: Sever 7.4 km/h
Veter: Sever 7.4 km/h
Temperatura: 1°C
Občutek mraza: -1°C
Točka rosišča: 0°C
Vlažnost: 93%
Zračni tlak: 1016 hPa
Oblaki: oblačno
Vidljivost: 5 km
Podrobnosti o oblakih: oblačno 304.8 m
LJMB 182330Z AUTO 35004KT 5000 -RASN OVC010/// 01/M00 Q1016
LJPZ - Portorož
Posodobljeno: 19-11-2018 00:30
jasno  
jasno  
   Veter: različen 3.7 km/h
Veter: različen 3.7 km/h
Temperatura: 2°C
Točka rosišča: -2°C
Vlažnost: 75%
Zračni tlak: 1013 hPa
Oblaki: jasno
Vidljivost: More than 10 km
Podrobnosti o oblakih: jasno
LJPZ 182330Z AUTO VRB02KT 9999 NCD 02/M02 Q1013
LDRI - Rijeka, Airport, Croatia
Posodobljeno: 19-11-2018 00:30
nekaj oblakov  
nekaj oblakov  
   Veter: različen 3.7 km/h
Veter: različen 3.7 km/h
Temperatura: 3°C
Točka rosišča: -3°C
Vlažnost: 65%
Zračni tlak: 1013 hPa
Oblaki: nekaj oblakov
Vidljivost: More than 10 km
Podrobnosti o oblakih: nekaj oblakov 1005.8 m
LDRI 182330Z VRB02KT 9999 FEW033 03/M03 Q1013
LOWK - Klagenfurt, Airport, Avstia
Posodobljeno: 19-11-2018 00:20
rahlo sneženje, pretežno oblačno  
rahlo sneženje, pretežno oblačno  
   Veter: SSZ 3.7 km/h
Veter: SSZ 3.7 km/h
Temperatura: 0°C
Točka rosišča: -1°C
Vlažnost: 93%
Zračni tlak: 1015 hPa
Oblaki: pretežno oblačno
Vidljivost: 8 km
Podrobnosti o oblakih: nekaj oblakov 487.7 m,
delno oblačno 853.4 m,
pretežno oblačno 1828.8 m
LOWK 182320Z AUTO 33002KT 8000 -SN FEW016 SCT028 BKN060 00/M01 Q1015

Script developed by  Saratoga-weather.org Adapted for the template by  Weerstation Leuven

Vremenski podatki so objavljeni na:

European Weather Network

WeatherCloud

Weather Underground

AWEKAS

HAMweather, WeatherForYou, PWS Weather

MapView

Geostik

Slovenia weather network

Oprema, ki se uporablja:

Vremenski program
Cumulus

Vremenski server
Asus

Cumulus

Asus